MT-0002 weather

CLOSED Safi
Luqa, Malta

Public forecast

Using degrees Celsius for public forecast. Weather courtesy of forecast.io.

METAR (pilot weather report)

Closest report is Malta International Airport, 1.3 nm (2.5 km) NW. Retrieved 2018/12/14 16:15 UTC (0 seconds ago):

LMML 141615Z 24009KT 210V270 9999 FEW025 18/11 Q1008 NOSIG

TAF (pilot weather forecast)

Forecast is more than 12 hours old.

Closest forecast is Malta International Airport, 1.3 nm (2.5 km) NW. Retrieved 2018/12/03 18:00 UTC (11 days ago):

TAF COR LMML 032100Z 0318/0418 31008KT 9999 SCT020 PROB30 TEMPO 0321/0406 BKN012 BECMG 0318/0321 30020G30KT